createdAt,value
2023-04-15T00:01:01.263Z,49.51
2023-04-15T00:03:28.728Z,49.75
2023-04-15T00:05:55.704Z,49.42
2023-04-15T00:08:22.282Z,49.75
2023-04-15T00:10:49.252Z,49.30
2023-04-15T00:13:16.528Z,49.37
2023-04-15T00:15:43.363Z,49.26
2023-04-15T00:18:10.162Z,49.40
2023-04-15T00:20:37.145Z,50.12
2023-04-15T00:23:04.149Z,49.54
2023-04-15T00:25:31.614Z,49.70
2023-04-15T00:27:58.190Z,49.29
2023-04-15T00:30:25.718Z,49.58
2023-04-15T00:32:52.689Z,49.61
2023-04-15T00:35:21.766Z,49.48
2023-04-15T00:37:49.972Z,49.86
2023-04-15T00:40:19.584Z,49.36
2023-04-15T00:42:46.202Z,49.38
2023-04-15T00:45:13.900Z,49.47
2023-04-15T00:47:42.995Z,49.28
2023-04-15T00:50:10.881Z,49.57
2023-04-15T00:52:38.932Z,49.64
2023-04-15T00:55:06.760Z,49.48
2023-04-15T00:57:33.737Z,49.29
2023-04-15T01:00:01.064Z,49.65
2023-04-15T01:02:28.193Z,49.72
2023-04-15T01:04:54.963Z,49.81
2023-04-15T01:07:21.493Z,50.25
2023-04-15T01:09:48.061Z,49.67
2023-04-15T01:12:16.511Z,50.03
2023-04-15T01:14:43.452Z,49.77
2023-04-15T01:17:09.979Z,49.65
2023-04-15T01:19:37.240Z,49.91
2023-04-15T01:22:05.248Z,49.38
2023-04-15T01:24:32.183Z,49.57
2023-04-15T01:26:59.270Z,49.53
2023-04-15T01:29:26.697Z,48.85
2023-04-15T01:31:54.934Z,49.53
2023-04-15T01:34:22.262Z,49.19
2023-04-15T01:36:48.904Z,49.07
2023-04-15T01:39:15.844Z,48.99
2023-04-15T01:41:42.409Z,49.07
2023-04-15T01:44:09.152Z,48.87
2023-04-15T01:46:36.338Z,49.14
2023-04-15T01:49:03.020Z,48.89
2023-04-15T01:51:31.979Z,49.51
2023-04-15T01:53:58.793Z,49.30
2023-04-15T01:56:25.431Z,49.36
2023-04-15T01:58:52.678Z,48.94
2023-04-15T02:01:19.908Z,48.66
2023-04-15T02:03:47.726Z,49.32
2023-04-15T02:06:15.335Z,48.84
2023-04-15T02:08:41.877Z,48.68
2023-04-15T02:11:08.473Z,48.67
2023-04-15T02:13:35.106Z,49.36
2023-04-15T02:16:01.866Z,48.79
2023-04-15T02:18:28.535Z,48.86
2023-04-15T02:20:57.174Z,48.77
2023-04-15T02:23:23.907Z,48.32
2023-04-15T02:25:53.372Z,48.57
2023-04-15T02:28:21.658Z,48.38
2023-04-15T02:30:53.670Z,48.76
2023-04-15T02:33:21.645Z,48.74
2023-04-15T02:35:48.367Z,48.40
2023-04-15T02:38:16.803Z,47.65
2023-04-15T02:40:43.750Z,48.21
2023-04-15T02:43:10.619Z,47.93
2023-04-15T02:45:37.298Z,48.18
2023-04-15T02:48:06.656Z,47.57
2023-04-15T02:50:33.545Z,48.14
2023-04-15T02:53:01.550Z,47.77
2023-04-15T02:55:29.247Z,47.84
2023-04-15T02:57:56.120Z,47.64
2023-04-15T03:00:25.182Z,47.34
2023-04-15T03:02:56.381Z,47.29
2023-04-15T03:05:26.186Z,46.99
2023-04-15T03:07:53.235Z,47.15
2023-04-15T03:10:21.308Z,47.03
2023-04-15T03:12:48.427Z,46.98
2023-04-15T03:15:18.207Z,47.15
2023-04-15T03:17:49.517Z,47.27
2023-04-15T03:20:17.001Z,46.94
2023-04-15T03:22:43.757Z,47.26
2023-04-15T03:25:10.674Z,46.90
2023-04-15T03:27:38.945Z,46.66
2023-04-15T03:30:06.643Z,46.36
2023-04-15T03:32:35.902Z,46.45
2023-04-15T03:35:02.493Z,46.63
2023-04-15T03:37:29.241Z,46.62
2023-04-15T03:39:55.967Z,46.90
2023-04-15T03:42:22.771Z,46.98
2023-04-15T03:44:49.481Z,46.63
2023-04-15T03:47:16.374Z,46.50
2023-04-15T03:49:42.919Z,46.41
2023-04-15T03:52:09.568Z,46.98
2023-04-15T03:54:36.089Z,46.99
2023-04-15T03:57:03.355Z,47.12
2023-04-15T03:59:29.952Z,47.51
2023-04-15T04:01:56.619Z,47.49
2023-04-15T04:04:23.459Z,47.01
2023-04-15T04:06:50.165Z,46.81
2023-04-15T04:09:16.722Z,46.75
2023-04-15T04:11:43.296Z,47.21
2023-04-15T04:14:09.804Z,46.75
2023-04-15T04:16:36.745Z,46.71
2023-04-15T04:19:03.597Z,47.41
2023-04-15T04:21:30.760Z,46.37
2023-04-15T04:23:57.326Z,46.49
2023-04-15T04:26:23.918Z,46.47
2023-04-15T04:28:50.726Z,46.76
2023-04-15T04:31:17.557Z,46.21
2023-04-15T04:33:44.084Z,45.73
2023-04-15T04:36:10.665Z,45.46
2023-04-15T04:38:37.170Z,45.30
2023-04-15T04:41:03.703Z,45.13
2023-04-15T04:43:30.585Z,45.75
2023-04-15T04:45:57.124Z,45.51
2023-04-15T04:48:23.777Z,45.06
2023-04-15T04:50:50.442Z,45.13
2023-04-15T04:53:18.018Z,45.16
2023-04-15T04:55:44.541Z,44.97
2023-04-15T04:58:11.586Z,45.13
2023-04-15T05:00:38.431Z,44.92
2023-04-15T05:03:05.293Z,44.89
2023-04-15T05:05:32.041Z,44.71
2023-04-15T05:07:58.606Z,44.65
2023-04-15T05:10:25.213Z,45.06
2023-04-15T05:12:52.581Z,44.44
2023-04-15T05:15:19.254Z,44.51
2023-04-15T05:17:45.820Z,44.35
2023-04-15T05:20:12.830Z,44.17
2023-04-15T05:22:39.334Z,44.34
2023-04-15T05:25:06.148Z,43.23
2023-04-15T05:27:32.798Z,43.32
2023-04-15T05:29:59.366Z,43.34
2023-04-15T05:32:26.265Z,43.21
2023-04-15T05:34:52.842Z,42.91
2023-04-15T05:37:22.333Z,43.03
2023-04-15T05:39:49.148Z,43.01
2023-04-15T05:42:15.832Z,43.20
2023-04-15T05:44:42.739Z,43.16
2023-04-15T05:47:10.263Z,42.99
2023-04-15T05:49:37.083Z,43.12
2023-04-15T05:52:03.815Z,43.27
2023-04-15T05:54:30.414Z,42.85
2023-04-15T05:56:57.638Z,42.79
2023-04-15T05:59:24.162Z,42.21
2023-04-15T06:01:52.081Z,42.02
2023-04-15T06:04:18.775Z,41.76
2023-04-15T06:06:45.454Z,42.84
2023-04-15T06:09:12.029Z,42.77
2023-04-15T06:11:38.582Z,42.55
2023-04-15T06:14:05.174Z,41.79
2023-04-15T06:16:32.240Z,41.61
2023-04-15T06:18:58.977Z,41.76
2023-04-15T06:21:25.658Z,41.55
2023-04-15T06:23:52.218Z,40.81
2023-04-15T06:26:18.782Z,40.89
2023-04-15T06:28:45.324Z,41.12
2023-04-15T06:31:11.971Z,41.25
2023-04-15T06:33:39.542Z,40.69
2023-04-15T06:36:06.279Z,40.43
2023-04-15T06:38:32.824Z,40.65
2023-04-15T06:40:59.446Z,40.43
2023-04-15T06:43:26.011Z,40.48
2023-04-15T06:45:52.565Z,40.27
2023-04-15T06:48:19.182Z,39.95
2023-04-15T06:50:45.778Z,39.83
2023-04-15T06:53:12.374Z,38.85
2023-04-15T06:55:39.064Z,39.00
2023-04-15T06:58:05.762Z,38.98
2023-04-15T07:00:33.669Z,38.76
2023-04-15T07:03:03.715Z,39.08
2023-04-15T07:05:32.329Z,38.54
2023-04-15T07:07:58.900Z,38.48
2023-04-15T07:10:26.045Z,38.88
2023-04-15T07:12:52.567Z,38.67
2023-04-15T07:15:19.521Z,38.48
2023-04-15T07:17:46.306Z,37.89
2023-04-15T07:20:13.170Z,37.88
2023-04-15T07:22:40.219Z,38.79
2023-04-15T07:25:07.837Z,37.89
2023-04-15T07:27:34.428Z,37.23
2023-04-15T07:30:01.972Z,37.32
2023-04-15T07:32:28.579Z,37.55
2023-04-15T07:34:55.206Z,37.59
2023-04-15T07:37:21.797Z,37.31
2023-04-15T07:39:48.991Z,37.92
2023-04-15T07:42:15.947Z,36.81
2023-04-15T07:44:42.526Z,36.58
2023-04-15T07:47:09.109Z,36.76
2023-04-15T07:49:35.670Z,36.83
2023-04-15T07:52:02.285Z,37.08
2023-04-15T07:54:28.819Z,36.60
2023-04-15T07:56:56.432Z,36.92
2023-04-15T07:59:22.966Z,36.55
2023-04-15T08:01:50.131Z,35.78
2023-04-15T08:04:17.025Z,36.28
2023-04-15T08:06:44.036Z,36.67
2023-04-15T08:09:10.991Z,36.43
2023-04-15T08:11:37.604Z,36.43
2023-04-15T08:14:04.165Z,36.89
2023-04-15T08:16:30.968Z,35.43
2023-04-15T08:18:57.897Z,35.60
2023-04-15T08:21:24.999Z,35.60
2023-04-15T08:23:53.061Z,35.33
2023-04-15T08:26:21.168Z,35.60
2023-04-15T08:28:48.775Z,34.80
2023-04-15T08:31:16.571Z,34.88
2023-04-15T08:33:43.295Z,34.22
2023-04-15T08:36:09.974Z,34.55
2023-04-15T08:38:37.339Z,34.70
2023-04-15T08:41:10.817Z,34.33
2023-04-15T08:44:01.166Z,34.47
2023-04-15T08:46:28.216Z,35.20
2023-04-15T08:48:57.595Z,34.83
2023-04-15T08:51:25.101Z,34.95
2023-04-15T08:53:52.591Z,35.03
2023-04-15T08:56:20.211Z,35.27
2023-04-15T08:58:47.652Z,34.57
2023-04-15T09:01:14.305Z,35.09
2023-04-15T09:03:42.362Z,34.55
2023-04-15T09:06:09.334Z,34.76
2023-04-15T09:08:35.916Z,34.63
2023-04-15T09:11:03.308Z,34.38
2023-04-15T09:13:30.419Z,34.35
2023-04-15T09:15:58.403Z,34.39
2023-04-15T09:18:32.951Z,35.26
2023-04-15T09:21:13.965Z,34.48
2023-04-15T09:23:55.594Z,34.78
2023-04-15T09:26:34.756Z,34.30
2023-04-15T09:29:09.284Z,33.89
2023-04-15T09:31:37.031Z,34.05
2023-04-15T09:34:03.784Z,34.44
2023-04-15T09:36:51.774Z,33.54
2023-04-15T09:39:18.349Z,33.62
2023-04-15T09:41:45.281Z,33.96
2023-04-15T09:44:25.537Z,33.37
2023-04-15T09:46:52.146Z,32.97
2023-04-15T09:49:19.725Z,33.15
2023-04-15T09:51:57.593Z,32.60
2023-04-15T09:54:40.203Z,32.75
2023-04-15T09:57:08.618Z,32.31
2023-04-15T09:59:35.586Z,33.37
2023-04-15T10:02:05.636Z,32.42
2023-04-15T10:04:35.498Z,33.16
2023-04-15T10:07:05.039Z,32.87
2023-04-15T10:09:33.583Z,32.06
2023-04-15T10:12:01.085Z,31.69
2023-04-15T10:14:32.814Z,31.72
2023-04-15T10:17:01.658Z,32.19
2023-04-15T10:19:33.145Z,32.74
2023-04-15T10:22:00.208Z,32.58
2023-04-15T10:24:28.704Z,32.14
2023-04-15T10:26:57.235Z,32.35
2023-04-15T10:29:27.300Z,31.78
2023-04-15T10:31:58.942Z,31.46
2023-04-15T10:34:26.150Z,31.26
2023-04-15T10:36:57.326Z,31.51
2023-04-15T10:39:33.167Z,31.49
2023-04-15T10:42:13.991Z,31.62
2023-04-15T10:44:43.680Z,30.81
2023-04-15T10:47:15.779Z,32.17
2023-04-15T10:49:49.855Z,31.28
2023-04-15T10:52:17.942Z,32.22
2023-04-15T10:54:44.921Z,31.72
2023-04-15T10:57:17.430Z,31.93
2023-04-15T11:00:16.454Z,31.02
2023-04-15T11:02:46.453Z,31.17
2023-04-15T11:05:14.291Z,31.47
2023-04-15T11:07:53.146Z,32.76
2023-04-15T11:10:25.938Z,32.20
2023-04-15T11:12:54.697Z,32.33
2023-04-15T11:15:30.436Z,32.16
2023-04-15T11:17:58.652Z,31.60
2023-04-15T11:20:25.921Z,31.07
2023-04-15T11:23:08.213Z,31.13
2023-04-15T11:25:41.692Z,31.16
2023-04-15T11:28:08.421Z,31.85
2023-04-15T11:30:37.411Z,31.97
2023-04-15T11:33:09.201Z,32.69
2023-04-15T11:35:36.261Z,32.79
2023-04-15T11:38:08.572Z,32.35
2023-04-15T11:40:36.114Z,32.53
2023-04-15T11:43:16.871Z,33.00
2023-04-15T11:45:55.942Z,32.79
2023-04-15T11:48:24.887Z,32.99
2023-04-15T11:50:59.514Z,33.51
2023-04-15T11:53:37.765Z,33.83
2023-04-15T11:56:05.293Z,34.34
2023-04-15T11:58:34.227Z,33.95
2023-04-15T12:01:01.518Z,34.62
2023-04-15T12:03:29.358Z,35.65
2023-04-15T12:06:12.259Z,36.82
2023-04-15T12:09:06.328Z,35.72
2023-04-15T12:11:40.721Z,36.40
2023-04-15T12:14:28.447Z,38.24
2023-04-15T12:16:58.291Z,39.41
2023-04-15T12:19:36.644Z,38.63
2023-04-15T12:22:09.999Z,38.37
2023-04-15T12:24:38.674Z,38.68
2023-04-15T12:27:10.923Z,38.58
2023-04-15T12:29:39.637Z,38.14
2023-04-15T12:32:14.796Z,38.86
2023-04-15T12:34:44.884Z,37.62
2023-04-15T12:37:14.154Z,37.09
2023-04-15T12:39:43.524Z,37.00
2023-04-15T12:42:10.927Z,36.69
2023-04-15T12:44:38.145Z,36.43
2023-04-15T12:47:05.940Z,36.34
2023-04-15T12:49:33.652Z,35.79
2023-04-15T12:52:02.195Z,35.98
2023-04-15T12:54:30.226Z,35.73
2023-04-15T12:56:57.510Z,35.19
2023-04-15T12:59:24.384Z,33.88
2023-04-15T13:01:52.120Z,34.07
2023-04-15T13:04:20.569Z,33.67
2023-04-15T13:06:47.255Z,33.36
2023-04-15T13:09:13.919Z,33.07
2023-04-15T13:11:40.788Z,32.66
2023-04-15T13:14:09.157Z,33.64
2023-04-15T13:16:36.223Z,32.94
2023-04-15T13:19:03.863Z,33.68
2023-04-15T13:21:34.854Z,33.73
2023-04-15T13:24:01.733Z,34.03
2023-04-15T13:26:28.242Z,33.62
2023-04-15T13:28:54.854Z,33.14
2023-04-15T13:31:21.487Z,33.25
2023-04-15T13:33:48.042Z,32.22
2023-04-15T13:36:14.570Z,32.33
2023-04-15T13:38:41.380Z,32.66
2023-04-15T13:41:07.905Z,31.81
2023-04-15T13:43:34.531Z,33.09
2023-04-15T13:46:01.315Z,32.82
2023-04-15T13:48:28.695Z,33.65
2023-04-15T13:50:55.337Z,34.25
2023-04-15T13:53:22.021Z,35.75
2023-04-15T13:56:04.760Z,37.04
2023-04-15T13:58:31.355Z,37.30
2023-04-15T14:00:58.069Z,36.79
2023-04-15T14:03:24.847Z,36.54
2023-04-15T14:05:55.849Z,36.37
2023-04-15T14:08:23.024Z,36.53
2023-04-15T14:10:49.595Z,36.61
2023-04-15T14:13:16.296Z,36.23
2023-04-15T14:15:42.878Z,35.87
2023-04-15T14:18:09.827Z,35.65
2023-04-15T14:20:36.355Z,35.78
2023-04-15T14:23:02.898Z,34.48
2023-04-15T14:25:33.711Z,33.96
2023-04-15T14:28:01.548Z,35.33
2023-04-15T14:30:28.256Z,34.41
2023-04-15T14:32:54.884Z,34.02
2023-04-15T14:35:21.723Z,32.93
2023-04-15T14:37:48.223Z,32.99
2023-04-15T14:40:14.918Z,34.14
2023-04-15T14:42:41.446Z,32.77
2023-04-15T14:45:08.879Z,33.12
2023-04-15T14:47:35.652Z,32.78
2023-04-15T14:50:02.603Z,33.58
2023-04-15T14:52:32.914Z,33.26
2023-04-15T14:54:59.439Z,33.42
2023-04-15T14:57:25.973Z,32.59
2023-04-15T14:59:56.493Z,32.53
2023-04-15T15:02:37.509Z,33.37
2023-04-15T15:05:06.017Z,33.55
2023-04-15T15:07:32.811Z,34.55
2023-04-15T15:09:59.360Z,33.99
2023-04-15T15:12:26.014Z,36.23
2023-04-15T15:14:52.530Z,36.22
2023-04-15T15:17:19.116Z,35.90
2023-04-15T15:19:45.688Z,37.03
2023-04-15T15:22:12.318Z,37.91
2023-04-15T15:24:38.890Z,38.03
2023-04-15T15:27:05.744Z,40.38
2023-04-15T15:29:32.309Z,40.98
2023-04-15T15:31:59.251Z,42.13
2023-04-15T15:34:25.857Z,42.96
2023-04-15T15:36:52.710Z,45.16
2023-04-15T15:39:19.256Z,45.38
2023-04-15T15:41:45.790Z,45.26
2023-04-15T15:44:12.371Z,45.63
2023-04-15T15:46:38.980Z,44.69
2023-04-15T15:49:05.794Z,44.84
2023-04-15T15:51:32.863Z,45.05
2023-04-15T15:53:59.390Z,45.48
2023-04-15T15:56:26.913Z,45.46
2023-04-15T15:58:53.470Z,46.14
2023-04-15T16:01:20.325Z,45.84
2023-04-15T16:03:47.052Z,46.43
2023-04-15T16:06:13.668Z,45.55
2023-04-15T16:08:40.240Z,45.89
2023-04-15T16:11:06.782Z,45.40
2023-04-15T16:13:33.595Z,45.37
2023-04-15T16:16:00.271Z,44.87
2023-04-15T16:18:26.842Z,44.47
2023-04-15T16:20:53.448Z,44.27
2023-04-15T16:23:20.057Z,43.96
2023-04-15T16:25:46.687Z,43.72
2023-04-15T16:28:25.807Z,42.98
2023-04-15T16:30:54.239Z,43.28
2023-04-15T16:33:21.071Z,43.25
2023-04-15T16:35:47.707Z,43.66
2023-04-15T16:38:14.307Z,43.96
2023-04-15T16:40:41.231Z,44.11
2023-04-15T16:43:08.120Z,44.40
2023-04-15T16:45:34.741Z,44.97
2023-04-15T16:48:01.566Z,45.20
2023-04-15T16:50:28.281Z,44.92
2023-04-15T16:52:55.171Z,45.85
2023-04-15T16:55:21.854Z,46.00
2023-04-15T16:58:01.440Z,47.30
2023-04-15T17:00:31.275Z,48.46
2023-04-15T17:02:58.812Z,49.12
2023-04-15T17:05:27.481Z,48.66
2023-04-15T17:07:54.492Z,50.39
2023-04-15T17:10:22.359Z,49.47
2023-04-15T17:12:51.796Z,49.63
2023-04-15T17:15:19.190Z,50.42
2023-04-15T17:17:45.805Z,50.56
2023-04-15T17:20:12.643Z,50.03
2023-04-15T17:22:39.370Z,50.78
2023-04-15T17:25:06.611Z,51.21
2023-04-15T17:27:33.154Z,51.53
2023-04-15T17:29:59.744Z,52.20
2023-04-15T17:32:31.566Z,52.54
2023-04-15T17:34:58.313Z,52.16
2023-04-15T17:37:24.866Z,52.93
2023-04-15T17:39:52.175Z,52.46
2023-04-15T17:42:18.776Z,54.04
2023-04-15T17:44:45.690Z,54.08
2023-04-15T17:47:12.228Z,53.94
2023-04-15T17:49:38.783Z,53.44
2023-04-15T17:52:05.699Z,53.30
2023-04-15T17:54:32.260Z,53.42
2023-04-15T17:56:59.993Z,53.40
2023-04-15T17:59:27.539Z,53.16
2023-04-15T18:01:54.175Z,52.74
2023-04-15T18:04:21.752Z,52.91
2023-04-15T18:06:49.302Z,53.65
2023-04-15T18:09:15.858Z,53.27
2023-04-15T18:11:44.956Z,53.64
2023-04-15T18:14:12.592Z,53.96
2023-04-15T18:16:42.616Z,53.67
2023-04-15T18:19:10.868Z,53.27
2023-04-15T18:21:37.424Z,53.32
2023-04-15T18:24:04.420Z,53.44
2023-04-15T18:26:31.868Z,53.80
2023-04-15T18:28:58.422Z,53.46
2023-04-15T18:31:25.127Z,53.44
2023-04-15T18:33:51.763Z,53.71
2023-04-15T18:36:18.367Z,53.37
2023-04-15T18:38:45.948Z,53.08
2023-04-15T18:41:12.531Z,52.64
2023-04-15T18:43:39.049Z,52.82
2023-04-15T18:46:09.564Z,53.57
2023-04-15T18:48:36.272Z,53.40
2023-04-15T18:51:02.845Z,52.90
2023-04-15T18:53:29.371Z,52.41
2023-04-15T18:55:56.387Z,52.96
2023-04-15T18:58:22.961Z,52.74
2023-04-15T19:00:49.545Z,52.79
2023-04-15T19:03:16.187Z,53.06
2023-04-15T19:05:42.798Z,53.03
2023-04-15T19:08:10.190Z,52.72
2023-04-15T19:10:36.836Z,52.83
2023-04-15T19:13:04.457Z,52.68
2023-04-15T19:15:31.255Z,53.09
2023-04-15T19:17:57.814Z,53.04
2023-04-15T19:20:24.418Z,52.66
2023-04-15T19:22:51.074Z,53.39
2023-04-15T19:25:17.614Z,52.57
2023-04-15T19:27:44.186Z,52.41
2023-04-15T19:30:10.837Z,52.26
2023-04-15T19:32:37.535Z,52.59
2023-04-15T19:35:04.286Z,52.24
2023-04-15T19:37:31.003Z,52.72
2023-04-15T19:39:57.565Z,51.72
2023-04-15T19:42:24.119Z,51.94
2023-04-15T19:44:50.803Z,51.54
2023-04-15T19:47:17.443Z,51.77
2023-04-15T19:49:45.308Z,51.96
2023-04-15T19:52:12.000Z,51.46
2023-04-15T19:54:38.553Z,51.17
2023-04-15T19:57:05.334Z,51.27
2023-04-15T19:59:31.901Z,51.21
2023-04-15T20:01:58.604Z,51.29
2023-04-15T20:04:25.858Z,52.16
2023-04-15T20:06:52.530Z,51.65
2023-04-15T20:09:19.079Z,51.72
2023-04-15T20:12:46.035Z,51.73
2023-04-15T20:14:32.450Z,52.02
2023-04-15T20:16:58.967Z,52.43
2023-04-15T20:19:25.776Z,52.78
2023-04-15T20:21:53.892Z,52.42
2023-04-15T20:24:21.408Z,51.51
2023-04-15T20:26:47.977Z,52.12
2023-04-15T20:29:14.603Z,53.14
2023-04-15T20:31:41.186Z,52.84
2023-04-15T20:34:09.519Z,55.09
2023-04-15T20:36:37.319Z,55.31
2023-04-15T20:39:04.089Z,54.69
2023-04-15T20:41:30.899Z,54.76
2023-04-15T20:43:57.410Z,55.23
2023-04-15T20:46:26.641Z,54.04
2023-04-15T20:48:54.023Z,55.30
2023-04-15T20:51:20.615Z,55.14
2023-04-15T20:53:47.162Z,54.90
2023-04-15T20:56:13.677Z,54.73
2023-04-15T20:58:40.212Z,55.98
2023-04-15T21:01:06.804Z,55.84
2023-04-15T21:03:33.695Z,55.40
2023-04-15T21:06:00.434Z,55.39
2023-04-15T21:08:29.614Z,55.10
2023-04-15T21:10:56.960Z,54.97
2023-04-15T21:13:24.223Z,55.55
2023-04-15T21:15:53.371Z,55.29
2023-04-15T21:18:23.344Z,56.30
2023-04-15T21:21:00.330Z,54.80
2023-04-15T21:23:30.338Z,55.25
2023-04-15T21:25:57.400Z,55.27
2023-04-15T21:28:24.073Z,55.78
2023-04-15T21:30:50.770Z,55.86
2023-04-15T21:33:20.212Z,55.60
2023-04-15T21:35:46.736Z,55.36
2023-04-15T21:38:13.580Z,54.98
2023-04-15T21:40:40.780Z,55.20
2023-04-15T21:43:07.844Z,55.84
2023-04-15T21:45:35.010Z,56.13
2023-04-15T21:48:08.541Z,56.94
2023-04-15T21:50:38.480Z,56.23
2023-04-15T21:53:08.299Z,55.63
2023-04-15T21:55:35.699Z,55.53
2023-04-15T21:58:02.257Z,56.42
2023-04-15T22:00:28.822Z,55.55
2023-04-15T22:02:55.602Z,55.59
2023-04-15T22:05:22.232Z,55.21
2023-04-15T22:07:48.758Z,55.10
2023-04-15T22:10:15.378Z,55.48
2023-04-15T22:12:41.939Z,55.82
2023-04-15T22:15:08.892Z,55.74
2023-04-15T22:17:35.630Z,55.86
2023-04-15T22:20:02.820Z,56.97
2023-04-15T22:22:44.240Z,56.67
2023-04-15T22:25:11.761Z,56.29
2023-04-15T22:27:38.276Z,55.94
2023-04-15T22:30:05.578Z,57.04
2023-04-15T22:32:32.209Z,56.32
2023-04-15T22:34:58.754Z,56.43
2023-04-15T22:37:25.535Z,56.01
2023-04-15T22:39:52.100Z,56.76
2023-04-15T22:42:18.667Z,56.14
2023-04-15T22:44:45.222Z,56.76
2023-04-15T22:47:11.764Z,55.63
2023-04-15T22:49:39.342Z,56.28
2023-04-15T22:52:05.990Z,55.80
2023-04-15T22:54:32.548Z,56.00
2023-04-15T22:56:59.060Z,56.91
2023-04-15T22:59:25.715Z,55.83
2023-04-15T23:01:53.200Z,55.69
2023-04-15T23:04:24.863Z,55.11
2023-04-15T23:06:53.132Z,55.49
2023-04-15T23:09:19.694Z,55.54
2023-04-15T23:11:47.538Z,55.18
2023-04-15T23:14:14.098Z,55.43
2023-04-15T23:16:40.991Z,54.96
2023-04-15T23:19:08.201Z,55.10
2023-04-15T23:21:35.022Z,55.87
2023-04-15T23:24:01.578Z,55.23
2023-04-15T23:26:28.237Z,55.01
2023-04-15T23:28:54.825Z,55.27
2023-04-15T23:31:21.384Z,54.90
2023-04-15T23:33:48.002Z,55.37
2023-04-15T23:36:14.551Z,55.43
2023-04-15T23:38:41.967Z,55.34
2023-04-15T23:41:09.864Z,55.39
2023-04-15T23:43:36.577Z,54.57
2023-04-15T23:46:03.340Z,54.88
2023-04-15T23:48:31.119Z,55.49
2023-04-15T23:50:57.742Z,54.17
2023-04-15T23:53:24.300Z,54.47
2023-04-15T23:55:51.041Z,53.75
2023-04-15T23:58:17.659Z,54.00
